createdAt,value
2018-11-23T00:00:32.092Z,16.17
2018-11-23T00:03:03.017Z,16.20
2018-11-23T00:05:32.411Z,16.90
2018-11-23T00:08:01.764Z,15.80
2018-11-23T00:10:32.147Z,16.70
2018-11-23T00:13:02.630Z,17.87
2018-11-23T00:15:31.282Z,17.80
2018-11-23T00:18:00.443Z,17.27
2018-11-23T00:20:31.086Z,17.20
2018-11-23T00:23:00.446Z,17.57
2018-11-23T00:25:30.823Z,15.47
2018-11-23T00:27:59.650Z,18.27
2018-11-23T00:30:31.338Z,17.10
2018-11-23T00:33:00.472Z,17.40
2018-11-23T00:35:31.371Z,18.23
2018-11-23T00:38:02.451Z,18.57
2018-11-23T00:40:33.815Z,18.47
2018-11-23T00:43:02.708Z,17.63
2018-11-23T00:45:32.747Z,16.83
2018-11-23T00:48:02.799Z,17.17
2018-11-23T00:50:32.003Z,17.50
2018-11-23T00:53:05.267Z,17.73
2018-11-23T00:55:37.122Z,17.00
2018-11-23T00:58:05.680Z,18.23
2018-11-23T01:00:35.152Z,18.33
2018-11-23T01:03:04.987Z,18.93
2018-11-23T01:05:34.059Z,17.47
2018-11-23T01:08:02.686Z,18.47
2018-11-23T01:10:31.521Z,18.23
2018-11-23T01:13:00.227Z,18.23
2018-11-23T01:15:28.753Z,19.00
2018-11-23T01:17:57.336Z,17.67
2018-11-23T01:20:27.151Z,18.90
2018-11-23T01:22:56.321Z,19.57
2018-11-23T01:25:25.906Z,18.33
2018-11-23T01:27:55.272Z,16.70
2018-11-23T01:30:25.122Z,17.90
2018-11-23T01:32:53.692Z,18.97
2018-11-23T01:35:22.238Z,18.37
2018-11-23T01:37:50.875Z,19.60
2018-11-23T01:40:22.331Z,18.37
2018-11-23T01:42:50.825Z,18.00
2018-11-23T01:45:19.447Z,19.97
2018-11-23T01:47:47.988Z,18.20
2018-11-23T01:50:18.592Z,19.47
2018-11-23T01:52:48.276Z,18.73
2018-11-23T01:55:17.604Z,19.50
2018-11-23T01:57:46.644Z,18.90
2018-11-23T02:00:30.616Z,20.33
2018-11-23T02:02:59.178Z,18.57
2018-11-23T02:05:27.721Z,19.10
2018-11-23T02:07:56.262Z,18.53
2018-11-23T02:10:24.776Z,19.00
2018-11-23T02:12:53.333Z,18.63
2018-11-23T02:15:22.733Z,18.17
2018-11-23T02:17:51.561Z,19.97
2018-11-23T02:20:21.021Z,20.07
2018-11-23T02:22:49.535Z,17.47
2018-11-23T02:25:18.103Z,18.20
2018-11-23T02:27:46.661Z,18.37
2018-11-23T02:30:17.972Z,17.60
2018-11-23T02:32:46.605Z,18.57
2018-11-23T02:35:15.791Z,18.47
2018-11-23T02:37:44.365Z,19.97
2018-11-23T02:40:14.116Z,20.00
2018-11-23T02:42:42.732Z,18.53
2018-11-23T02:45:14.897Z,17.30
2018-11-23T02:47:44.408Z,18.70
2018-11-23T02:50:13.008Z,18.57
2018-11-23T02:52:42.022Z,19.07
2018-11-23T02:55:11.984Z,19.70
2018-11-23T02:57:40.547Z,19.23
2018-11-23T03:00:13.256Z,20.73
2018-11-23T03:02:41.876Z,18.90
2018-11-23T03:05:13.268Z,19.57
2018-11-23T03:07:42.340Z,19.20
2018-11-23T03:10:12.287Z,19.03
2018-11-23T03:12:41.803Z,19.67
2018-11-23T03:15:12.164Z,19.20
2018-11-23T03:17:40.922Z,20.00
2018-11-23T03:20:13.490Z,20.10
2018-11-23T03:22:42.116Z,19.47
2018-11-23T03:25:11.636Z,18.93
2018-11-23T03:27:40.227Z,19.50
2018-11-23T03:30:15.207Z,19.27
2018-11-23T03:32:44.289Z,19.77
2018-11-23T03:35:12.977Z,20.43
2018-11-23T03:37:41.601Z,19.73
2018-11-23T03:40:10.159Z,20.57
2018-11-23T03:42:38.695Z,19.13
2018-11-23T03:45:09.133Z,20.33
2018-11-23T03:47:37.798Z,20.83
2018-11-23T03:50:07.322Z,19.70
2018-11-23T03:52:35.872Z,18.63
2018-11-23T03:55:04.554Z,21.10
2018-11-23T03:57:33.072Z,19.97
2018-11-23T04:00:01.564Z,22.20
2018-11-23T04:02:30.097Z,21.53
2018-11-23T04:04:58.765Z,21.70
2018-11-23T04:07:27.307Z,20.10
2018-11-23T04:09:55.796Z,20.90
2018-11-23T04:12:24.330Z,21.40
2018-11-23T04:14:52.927Z,21.20
2018-11-23T04:17:21.420Z,21.50
2018-11-23T04:19:49.953Z,21.53
2018-11-23T04:22:19.258Z,21.80
2018-11-23T04:24:47.236Z,25.52
2018-11-23T04:27:15.819Z,22.67
2018-11-23T04:29:44.353Z,22.47
2018-11-23T04:32:12.926Z,20.77
2018-11-23T04:34:41.463Z,20.70
2018-11-23T04:37:09.988Z,19.60
2018-11-23T04:39:38.480Z,19.60
2018-11-23T04:42:07.031Z,20.63
2018-11-23T04:44:35.595Z,21.43
2018-11-23T04:47:04.201Z,20.57
2018-11-23T04:49:32.758Z,22.37
2018-11-23T04:52:01.343Z,24.60
2018-11-23T04:54:30.004Z,24.13
2018-11-23T04:56:58.636Z,23.23
2018-11-23T04:59:27.231Z,22.60
2018-11-23T05:01:55.791Z,23.03
2018-11-23T05:04:24.555Z,23.70
2018-11-23T05:06:53.096Z,23.70
2018-11-23T05:09:21.708Z,22.63
2018-11-23T05:11:50.381Z,21.73
2018-11-23T05:14:18.995Z,22.13
2018-11-23T05:16:47.560Z,21.27
2018-11-23T05:19:16.100Z,20.90
2018-11-23T05:21:44.634Z,21.53
2018-11-23T05:24:13.233Z,21.83
2018-11-23T05:26:41.815Z,19.47
2018-11-23T05:29:10.445Z,20.80
2018-11-23T05:31:38.978Z,21.60
2018-11-23T05:34:07.537Z,23.33
2018-11-23T05:36:36.081Z,21.23
2018-11-23T05:39:06.345Z,21.40
2018-11-23T05:41:34.890Z,22.13
2018-11-23T05:44:03.476Z,22.97
2018-11-23T05:46:32.130Z,23.07
2018-11-23T05:49:00.665Z,22.30
2018-11-23T05:51:29.259Z,22.80
2018-11-23T05:53:57.888Z,22.03
2018-11-23T05:56:26.463Z,22.30
2018-11-23T05:58:55.039Z,21.37
2018-11-23T06:01:23.639Z,23.87
2018-11-23T06:03:52.230Z,21.70
2018-11-23T06:06:20.837Z,23.47
2018-11-23T06:08:49.495Z,23.77
2018-11-23T06:11:18.080Z,22.47
2018-11-23T06:13:46.816Z,22.47
2018-11-23T06:16:15.391Z,23.10
2018-11-23T06:18:44.040Z,23.10
2018-11-23T06:21:12.762Z,24.10
2018-11-23T06:23:41.417Z,23.47
2018-11-23T06:26:16.269Z,22.27
2018-11-23T06:28:45.101Z,23.20
2018-11-23T06:31:13.953Z,21.80
2018-11-23T06:33:44.799Z,22.30
2018-11-23T06:36:13.352Z,22.97
2018-11-23T06:38:42.858Z,23.40
2018-11-23T06:41:11.581Z,24.33
2018-11-23T06:43:40.179Z,28.30
2018-11-23T06:46:09.979Z,24.50
2018-11-23T06:48:38.561Z,23.90
2018-11-23T06:51:07.366Z,24.00
2018-11-23T06:53:35.985Z,23.27
2018-11-23T06:56:05.094Z,22.93
2018-11-23T06:58:33.740Z,24.07
2018-11-23T07:01:02.292Z,23.00
2018-11-23T07:03:30.939Z,23.97
2018-11-23T07:06:00.108Z,22.47
2018-11-23T07:11:14.094Z,21.43
2018-11-23T07:13:42.713Z,22.53
2018-11-23T07:16:17.920Z,22.77
2018-11-23T07:18:46.684Z,22.77
2018-11-23T07:21:21.243Z,23.03
2018-11-23T07:23:44.171Z,22.93
2018-11-23T07:26:13.018Z,23.50
2018-11-23T07:28:41.538Z,23.23
2018-11-23T07:31:10.393Z,22.70
2018-11-23T07:33:39.052Z,23.93
2018-11-23T07:36:07.671Z,23.87
2018-11-23T07:38:36.330Z,23.50
2018-11-23T07:41:16.240Z,22.40
2018-11-23T07:43:44.859Z,23.17
2018-11-23T07:46:13.515Z,22.87
2018-11-23T07:48:42.076Z,23.43
2018-11-23T07:51:10.873Z,24.83
2018-11-23T07:53:39.500Z,24.33
2018-11-23T07:56:08.204Z,21.53
2018-11-23T07:58:36.787Z,19.93
2018-11-23T08:01:05.407Z,21.33
2018-11-23T08:03:33.883Z,20.43
2018-11-23T08:06:02.508Z,21.40
2018-11-23T08:08:31.042Z,20.57
2018-11-23T08:10:58.643Z,20.17
2018-11-23T08:13:27.145Z,19.63
2018-11-23T08:15:55.752Z,18.83
2018-11-23T08:18:24.365Z,19.97
2018-11-23T08:20:52.852Z,19.63
2018-11-23T08:23:21.334Z,18.77
2018-11-23T08:25:50.026Z,19.27
2018-11-23T08:28:18.505Z,19.83
2018-11-23T08:30:47.101Z,19.63
2018-11-23T08:33:15.621Z,20.13
2018-11-23T08:35:44.267Z,20.43
2018-11-23T08:38:12.833Z,21.17
2018-11-23T08:40:41.518Z,19.77
2018-11-23T08:43:10.116Z,20.23
2018-11-23T08:45:38.731Z,19.93
2018-11-23T08:48:07.347Z,21.17
2018-11-23T08:50:36.063Z,21.00
2018-11-23T08:53:04.630Z,22.07
2018-11-23T08:55:33.285Z,21.53
2018-11-23T08:58:01.913Z,21.13
2018-11-23T09:00:30.436Z,20.63
2018-11-23T09:03:00.435Z,19.53
2018-11-23T09:05:28.947Z,19.33
2018-11-23T09:07:57.963Z,20.43
2018-11-23T09:10:28.440Z,18.80
2018-11-23T09:12:59.684Z,19.73
2018-11-23T09:15:28.339Z,19.70
2018-11-23T09:17:56.944Z,20.17
2018-11-23T09:20:25.496Z,19.23
2018-11-23T09:22:54.214Z,19.60
2018-11-23T09:25:23.631Z,19.60
2018-11-23T09:27:53.754Z,18.70
2018-11-23T09:30:23.759Z,20.03
2018-11-23T09:32:53.511Z,20.13
2018-11-23T09:35:22.125Z,20.63
2018-11-23T09:37:51.631Z,19.93
2018-11-23T09:40:21.359Z,19.63
2018-11-23T09:42:50.211Z,19.73
2018-11-23T09:45:21.968Z,20.60
2018-11-23T09:47:51.607Z,19.43
2018-11-23T09:50:21.269Z,19.33
2018-11-23T09:52:50.940Z,20.00
2018-11-23T09:55:20.233Z,18.90
2018-11-23T09:57:48.845Z,19.57
2018-11-23T10:00:20.834Z,20.57
2018-11-23T10:02:52.411Z,19.97
2018-11-23T10:05:21.513Z,19.93
2018-11-23T10:07:54.105Z,20.23
2018-11-23T10:10:23.413Z,20.23
2018-11-23T10:12:51.904Z,20.23
2018-11-23T10:15:21.269Z,19.77
2018-11-23T10:17:49.783Z,18.97
2018-11-23T10:20:24.737Z,18.90
2018-11-23T10:22:53.894Z,19.73
2018-11-23T10:25:24.716Z,18.40
2018-11-23T10:27:53.712Z,18.90
2018-11-23T10:30:25.882Z,19.63
2018-11-23T10:32:57.114Z,19.47
2018-11-23T10:35:26.188Z,19.03
2018-11-23T10:37:56.260Z,18.77
2018-11-23T10:40:26.430Z,19.65
2018-11-23T10:42:55.110Z,22.13
2018-11-23T10:45:25.363Z,20.67
2018-11-23T10:47:54.887Z,19.82
2018-11-23T10:50:24.930Z,18.07
2018-11-23T10:52:53.950Z,19.60
2018-11-23T10:55:23.904Z,19.20
2018-11-23T10:57:53.010Z,18.37
2018-11-23T11:00:26.843Z,17.75
2018-11-23T11:03:00.887Z,18.75
2018-11-23T11:05:34.797Z,18.32
2018-11-23T11:08:04.229Z,17.75
2018-11-23T11:10:32.977Z,17.82
2018-11-23T11:13:01.694Z,18.17
2018-11-23T11:15:30.335Z,16.40
2018-11-23T11:17:59.001Z,17.57
2018-11-23T11:20:27.784Z,18.32
2018-11-23T11:22:56.722Z,18.55
2018-11-23T11:25:25.392Z,19.20
2018-11-23T11:27:54.213Z,17.32
2018-11-23T11:30:22.971Z,17.40
2018-11-23T11:32:51.708Z,15.38
2018-11-23T11:35:20.449Z,15.18
2018-11-23T11:37:49.307Z,17.25
2018-11-23T11:40:18.981Z,13.90
2018-11-23T11:42:47.617Z,14.33
2018-11-23T11:45:17.521Z,14.90
2018-11-23T11:47:46.872Z,13.43
2018-11-23T11:50:15.876Z,14.70
2018-11-23T11:52:46.343Z,14.43
2018-11-23T11:55:18.675Z,13.75
2018-11-23T11:57:47.864Z,15.23
2018-11-23T12:00:18.921Z,16.77
2018-11-23T12:02:48.069Z,15.32
2018-11-23T12:05:16.676Z,12.78
2018-11-23T12:07:45.448Z,12.85
2018-11-23T12:10:19.196Z,12.90
2018-11-23T12:12:47.756Z,12.13
2018-11-23T12:15:16.833Z,12.03
2018-11-23T12:17:45.357Z,11.88
2018-11-23T12:20:15.754Z,10.78
2018-11-23T12:22:44.779Z,9.20
2018-11-23T12:25:14.082Z,8.55
2018-11-23T12:27:42.761Z,9.05
2018-11-23T12:30:14.257Z,9.03
2018-11-23T12:32:43.850Z,8.33
2018-11-23T12:35:13.770Z,8.23
2018-11-23T12:37:42.493Z,9.00
2018-11-23T12:40:12.621Z,8.63
2018-11-23T12:42:41.380Z,10.50
2018-11-23T12:45:12.350Z,10.17
2018-11-23T12:47:41.032Z,9.87
2018-11-23T12:50:15.821Z,9.80
2018-11-23T12:52:44.544Z,10.07
2018-11-23T12:55:14.103Z,10.07
2018-11-23T12:57:43.121Z,9.87
2018-11-23T13:00:23.024Z,9.20
2018-11-23T13:03:00.119Z,8.63
2018-11-23T13:05:29.691Z,8.80
2018-11-23T13:08:04.275Z,8.27
2018-11-23T13:10:34.096Z,8.03
2018-11-23T13:13:07.043Z,7.53
2018-11-23T13:15:37.132Z,8.60
2018-11-23T13:18:07.401Z,8.47
2018-11-23T13:20:36.392Z,7.83
2018-11-23T13:23:05.673Z,8.87
2018-11-23T13:25:35.088Z,9.63
2018-11-23T13:28:04.381Z,8.00
2018-11-23T13:30:37.212Z,8.23
2018-11-23T13:33:07.194Z,7.63
2018-11-23T13:35:36.501Z,7.40
2018-11-23T13:38:05.834Z,7.07
2018-11-23T13:40:34.965Z,7.27
2018-11-23T13:43:03.695Z,5.97
2018-11-23T13:45:33.448Z,6.23
2018-11-23T13:48:02.070Z,6.40
2018-11-23T13:50:31.185Z,6.00
2018-11-23T13:53:01.235Z,6.00
2018-11-23T13:55:29.896Z,6.50
2018-11-23T13:57:58.673Z,6.27
2018-11-23T14:00:29.109Z,7.87
2018-11-23T14:02:57.903Z,7.87
2018-11-23T14:05:28.473Z,7.53
2018-11-23T14:07:58.676Z,7.53
2018-11-23T14:10:28.248Z,7.33
2018-11-23T14:12:57.210Z,8.23
2018-11-23T14:15:27.187Z,7.60
2018-11-23T14:17:57.002Z,9.17
2018-11-23T14:20:26.390Z,8.60
2018-11-23T14:22:55.243Z,8.13
2018-11-23T14:25:25.388Z,8.27
2018-11-23T14:27:54.901Z,7.80
2018-11-23T14:30:25.418Z,7.43
2018-11-23T14:32:54.250Z,6.87
2018-11-23T14:35:25.376Z,7.10
2018-11-23T14:37:55.188Z,7.73
2018-11-23T14:40:23.987Z,8.37
2018-11-23T14:42:53.397Z,7.33
2018-11-23T14:45:25.663Z,7.53
2018-11-23T14:47:55.436Z,7.87
2018-11-23T14:50:25.862Z,7.17
2018-11-23T14:52:55.600Z,7.00
2018-11-23T14:55:24.491Z,7.43
2018-11-23T14:57:53.893Z,7.70
2018-11-23T15:00:25.505Z,7.93
2018-11-23T15:02:55.669Z,8.20
2018-11-23T15:05:24.352Z,8.23
2018-11-23T15:07:52.989Z,8.20
2018-11-23T15:10:23.131Z,8.63
2018-11-23T15:12:53.301Z,8.97
2018-11-23T15:15:23.356Z,8.67
2018-11-23T15:17:52.728Z,7.80
2018-11-23T15:20:26.441Z,8.93
2018-11-23T15:22:57.116Z,8.97
2018-11-23T15:25:25.832Z,8.13
2018-11-23T15:27:54.708Z,7.90
2018-11-23T15:30:25.573Z,8.37
2018-11-23T15:32:54.616Z,8.00
2018-11-23T15:35:23.309Z,8.60
2018-11-23T15:37:52.158Z,9.33
2018-11-23T15:40:23.328Z,8.90
2018-11-23T15:42:53.588Z,8.67
2018-11-23T15:45:23.681Z,10.10
2018-11-23T15:47:52.629Z,9.53
2018-11-23T15:50:22.896Z,9.07
2018-11-23T15:52:51.734Z,9.10
2018-11-23T15:55:22.663Z,9.47
2018-11-23T15:57:52.274Z,8.60
2018-11-23T16:00:24.402Z,9.43
2018-11-23T16:02:53.958Z,9.27
2018-11-23T16:05:22.994Z,8.83
2018-11-23T16:07:52.724Z,8.73
2018-11-23T16:10:28.041Z,9.63
2018-11-23T16:12:58.019Z,9.00
2018-11-23T16:15:28.482Z,9.40
2018-11-23T16:17:57.930Z,10.40
2018-11-23T16:20:29.466Z,10.00
2018-11-23T16:23:00.040Z,11.33
2018-11-23T16:25:29.015Z,12.30
2018-11-23T16:28:00.461Z,12.77
2018-11-23T16:30:31.613Z,12.63
2018-11-23T16:33:01.538Z,12.47
2018-11-23T16:35:32.699Z,12.27
2018-11-23T16:38:03.064Z,12.30
2018-11-23T16:40:32.853Z,12.23
2018-11-23T16:43:02.237Z,11.83
2018-11-23T16:45:32.349Z,12.10
2018-11-23T16:48:02.575Z,12.17
2018-11-23T16:50:32.041Z,12.10
2018-11-23T16:53:00.915Z,12.50
2018-11-23T16:55:30.535Z,12.77
2018-11-23T16:58:01.405Z,11.67
2018-11-23T17:00:31.472Z,12.57
2018-11-23T17:03:01.658Z,12.30
2018-11-23T17:05:32.019Z,12.10
2018-11-23T17:08:00.922Z,12.67
2018-11-23T17:10:32.161Z,13.07
2018-11-23T17:13:00.813Z,13.67
2018-11-23T17:15:29.983Z,13.60
2018-11-23T17:17:58.724Z,13.00
2018-11-23T17:20:33.560Z,12.80
2018-11-23T17:23:03.674Z,12.97
2018-11-23T17:25:32.702Z,13.40
2018-11-23T17:28:03.179Z,14.43
2018-11-23T17:30:32.815Z,15.33
2018-11-23T17:33:01.767Z,12.57
2018-11-23T17:35:30.565Z,13.33
2018-11-23T17:37:59.242Z,13.10
2018-11-23T17:40:29.493Z,13.23
2018-11-23T17:42:58.528Z,13.90
2018-11-23T17:45:29.014Z,12.77
2018-11-23T17:47:57.761Z,13.87
2018-11-23T17:50:27.849Z,12.43
2018-11-23T17:52:57.116Z,14.00
2018-11-23T17:55:25.902Z,13.07
2018-11-23T17:57:55.386Z,13.97
2018-11-23T18:00:26.452Z,12.80
2018-11-23T18:02:55.985Z,13.03
2018-11-23T18:05:25.577Z,14.60
2018-11-23T18:07:54.725Z,14.60
2018-11-23T18:10:27.707Z,16.13
2018-11-23T18:12:57.308Z,15.63
2018-11-23T18:15:27.904Z,15.07
2018-11-23T18:17:57.552Z,15.37
2018-11-23T18:20:27.056Z,16.07
2018-11-23T18:22:56.560Z,13.77
2018-11-23T18:25:40.831Z,15.77
2018-11-23T18:28:09.453Z,15.70
2018-11-23T18:30:38.090Z,14.80
2018-11-23T18:33:08.469Z,15.13
2018-11-23T18:35:37.269Z,15.57
2018-11-23T18:38:06.004Z,15.33
2018-11-23T18:40:37.553Z,15.03
2018-11-23T18:43:05.074Z,15.60
2018-11-23T18:45:35.531Z,15.17
2018-11-23T18:48:05.203Z,14.60
2018-11-23T18:50:35.443Z,15.80
2018-11-23T18:53:06.495Z,16.07
2018-11-23T18:55:35.689Z,16.63
2018-11-23T18:58:05.008Z,15.30
2018-11-23T19:00:34.041Z,14.57
2018-11-23T19:03:03.487Z,15.70
2018-11-23T19:05:32.243Z,16.47
2018-11-23T19:08:01.124Z,14.97
2018-11-23T19:10:30.076Z,16.27
2018-11-23T19:12:59.502Z,15.60
2018-11-23T19:15:29.210Z,15.70
2018-11-23T19:18:11.314Z,15.13
2018-11-23T19:20:40.319Z,14.60
2018-11-23T19:23:09.640Z,14.43
2018-11-23T19:25:38.281Z,14.87
2018-11-23T19:28:07.722Z,15.13
2018-11-23T19:30:36.698Z,15.90
2018-11-23T19:33:05.396Z,14.33
2018-11-23T19:35:35.769Z,15.73
2018-11-23T19:38:04.642Z,15.73
2018-11-23T19:40:33.609Z,15.63
2018-11-23T19:43:02.779Z,14.77
2018-11-23T19:45:31.756Z,15.53
2018-11-23T19:48:00.372Z,15.53
2018-11-23T19:50:28.882Z,16.20
2018-11-23T19:52:57.588Z,16.33
2018-11-23T19:55:26.372Z,16.30
2018-11-23T19:57:55.390Z,16.60
2018-11-23T20:00:25.560Z,15.60
2018-11-23T20:02:54.829Z,16.30
2018-11-23T20:05:23.622Z,15.40
2018-11-23T20:07:55.155Z,16.13
2018-11-23T20:10:24.580Z,16.20
2018-11-23T20:12:56.159Z,15.80
2018-11-23T20:15:25.917Z,15.70
2018-11-23T20:17:54.655Z,16.20
2018-11-23T20:20:24.532Z,15.50
2018-11-23T20:22:53.365Z,14.93
2018-11-23T20:25:21.944Z,15.53
2018-11-23T20:27:51.732Z,15.97
2018-11-23T20:30:20.486Z,16.60
2018-11-23T20:32:49.082Z,14.87
2018-11-23T20:35:18.765Z,15.60
2018-11-23T20:37:47.877Z,15.73
2018-11-23T20:40:18.692Z,26.87
2018-11-23T20:42:47.618Z,17.23
2018-11-23T20:45:16.482Z,16.97
2018-11-23T20:47:45.407Z,17.27
2018-11-23T20:50:15.173Z,15.47
2018-11-23T20:52:43.814Z,14.43
2018-11-23T20:55:13.648Z,15.93
2018-11-23T20:57:42.223Z,16.23
2018-11-23T21:00:13.256Z,13.57
2018-11-23T21:02:41.928Z,15.83
2018-11-23T21:05:12.198Z,14.70
2018-11-23T21:07:40.796Z,14.93
2018-11-23T21:10:20.484Z,16.63
2018-11-23T21:12:44.633Z,16.13
2018-11-23T21:15:30.818Z,15.97
2018-11-23T21:18:02.603Z,15.53
2018-11-23T21:20:31.224Z,16.07
2018-11-23T21:22:59.804Z,16.60
2018-11-23T21:25:28.392Z,14.27
2018-11-23T21:27:56.990Z,15.03
2018-11-23T21:30:25.586Z,15.50
2018-11-23T21:32:55.316Z,14.93
2018-11-23T21:35:23.912Z,15.37
2018-11-23T21:37:52.506Z,15.53
2018-11-23T21:40:21.083Z,14.67
2018-11-23T21:42:49.742Z,14.83
2018-11-23T21:45:19.595Z,16.30
2018-11-23T21:47:49.419Z,14.50
2018-11-23T21:50:25.023Z,14.53
2018-11-23T21:52:48.647Z,15.57
2018-11-23T21:55:20.443Z,15.07
2018-11-23T21:57:49.105Z,14.67
2018-11-23T22:00:17.738Z,14.57
2018-11-23T22:02:46.362Z,15.60
2018-11-23T22:05:14.927Z,15.27
2018-11-23T22:07:43.528Z,14.60
2018-11-23T22:10:14.348Z,15.33
2018-11-23T22:12:43.020Z,15.30
2018-11-23T22:15:13.610Z,14.90
2018-11-23T22:17:42.149Z,14.80
2018-11-23T22:20:14.519Z,14.57
2018-11-23T22:22:43.074Z,16.47
2018-11-23T22:25:14.799Z,15.63
2018-11-23T22:27:43.525Z,16.03
2018-11-23T22:30:13.468Z,14.27
2018-11-23T22:32:41.995Z,16.33
2018-11-23T22:35:11.456Z,16.03
2018-11-23T22:37:39.979Z,15.87
2018-11-23T22:40:18.951Z,14.93
2018-11-23T22:42:48.601Z,14.60
2018-11-23T22:45:17.594Z,15.43
2018-11-23T22:47:46.096Z,15.43
2018-11-23T22:50:17.585Z,14.30
2018-11-23T22:52:46.091Z,14.83
2018-11-23T22:55:15.569Z,14.33
2018-11-23T22:57:44.108Z,14.17
2018-11-23T23:00:26.453Z,14.47
2018-11-23T23:02:54.951Z,14.00
2018-11-23T23:05:24.400Z,14.97
2018-11-23T23:07:52.878Z,14.67
2018-11-23T23:10:21.368Z,12.77
2018-11-23T23:12:49.819Z,13.57
2018-11-23T23:15:18.361Z,14.53
2018-11-23T23:17:46.812Z,13.83
2018-11-23T23:20:18.652Z,13.33
2018-11-23T23:22:47.054Z,12.93
2018-11-23T23:25:15.571Z,14.27
2018-11-23T23:27:44.131Z,14.47
2018-11-23T23:30:13.679Z,14.43
2018-11-23T23:32:42.253Z,12.90
2018-11-23T23:35:12.033Z,14.10
2018-11-23T23:37:40.833Z,13.33
2018-11-23T23:40:12.340Z,14.10
2018-11-23T23:42:40.890Z,13.07
2018-11-23T23:45:11.481Z,13.97
2018-11-23T23:47:40.009Z,13.37
2018-11-23T23:50:15.066Z,14.17
2018-11-23T23:52:43.545Z,13.40
2018-11-23T23:55:12.131Z,13.83
2018-11-23T23:57:41.691Z,14.00
